sensor_id;sensor_type;location;lat;lon;timestamp;P1;durP1;ratioP1;P2;durP2;ratioP2
42260;SDS011;27926;48.062;7.474;2023-06-10T00:00:40;5.57;;;3.80;;
42260;SDS011;27926;48.062;7.474;2023-06-10T00:03:05;5.70;;;4.30;;
42260;SDS011;27926;48.062;7.474;2023-06-10T00:05:30;6.95;;;3.70;;
42260;SDS011;27926;48.062;7.474;2023-06-10T00:07:55;9.00;;;3.75;;
42260;SDS011;27926;48.062;7.474;2023-06-10T00:10:20;5.53;;;3.75;;
42260;SDS011;27926;48.062;7.474;2023-06-10T00:12:44;5.30;;;3.90;;
42260;SDS011;27926;48.062;7.474;2023-06-10T00:15:09;7.18;;;3.75;;
42260;SDS011;27926;48.062;7.474;2023-06-10T00:17:34;12.00;;;4.10;;
42260;SDS011;27926;48.062;7.474;2023-06-10T00:20:02;6.60;;;4.10;;
42260;SDS011;27926;48.062;7.474;2023-06-10T00:22:28;6.90;;;4.43;;
42260;SDS011;27926;48.062;7.474;2023-06-10T00:24:56;11.32;;;4.75;;
42260;SDS011;27926;48.062;7.474;2023-06-10T00:27:20;7.07;;;4.55;;
42260;SDS011;27926;48.062;7.474;2023-06-10T00:29:45;10.73;;;5.35;;
42260;SDS011;27926;48.062;7.474;2023-06-10T00:32:10;8.15;;;4.82;;
42260;SDS011;27926;48.062;7.474;2023-06-10T00:34:34;8.60;;;5.07;;
42260;SDS011;27926;48.062;7.474;2023-06-10T00:36:59;6.03;;;4.20;;
42260;SDS011;27926;48.062;7.474;2023-06-10T00:39:24;10.25;;;4.13;;
42260;SDS011;27926;48.062;7.474;2023-06-10T00:41:48;6.80;;;4.72;;
42260;SDS011;27926;48.062;7.474;2023-06-10T00:44:14;10.18;;;4.47;;
42260;SDS011;27926;48.062;7.474;2023-06-10T00:46:39;8.73;;;4.25;;
42260;SDS011;27926;48.062;7.474;2023-06-10T00:49:04;6.47;;;3.85;;
42260;SDS011;27926;48.062;7.474;2023-06-10T00:51:29;7.95;;;4.50;;
42260;SDS011;27926;48.062;7.474;2023-06-10T00:53:54;6.23;;;4.60;;
42260;SDS011;27926;48.062;7.474;2023-06-10T00:56:19;7.32;;;4.63;;
42260;SDS011;27926;48.062;7.474;2023-06-10T00:58:45;7.88;;;4.95;;
42260;SDS011;27926;48.062;7.474;2023-06-10T01:01:09;8.30;;;4.75;;
42260;SDS011;27926;48.062;7.474;2023-06-10T01:03:35;7.28;;;4.65;;
42260;SDS011;27926;48.062;7.474;2023-06-10T01:06:03;12.63;;;5.20;;
42260;SDS011;27926;48.062;7.474;2023-06-10T01:11:52;6.20;;;4.57;;
42260;SDS011;27926;48.062;7.474;2023-06-10T01:14:26;6.80;;;3.92;;
42260;SDS011;27926;48.062;7.474;2023-06-10T01:16:51;6.97;;;4.05;;
42260;SDS011;27926;48.062;7.474;2023-06-10T01:19:17;7.38;;;3.80;;
42260;SDS011;27926;48.062;7.474;2023-06-10T01:21:41;10.18;;;5.13;;
42260;SDS011;27926;48.062;7.474;2023-06-10T01:24:08;8.32;;;3.83;;
42260;SDS011;27926;48.062;7.474;2023-06-10T01:26:34;9.73;;;4.93;;
42260;SDS011;27926;48.062;7.474;2023-06-10T01:29:06;9.93;;;4.40;;
42260;SDS011;27926;48.062;7.474;2023-06-10T01:34:16;10.07;;;4.22;;
42260;SDS011;27926;48.062;7.474;2023-06-10T01:36:44;8.20;;;4.70;;
42260;SDS011;27926;48.062;7.474;2023-06-10T01:39:11;8.52;;;5.18;;
42260;SDS011;27926;48.062;7.474;2023-06-10T01:41:38;7.30;;;4.72;;
42260;SDS011;27926;48.062;7.474;2023-06-10T01:44:04;6.18;;;4.63;;
42260;SDS011;27926;48.062;7.474;2023-06-10T01:46:29;7.28;;;5.18;;
42260;SDS011;27926;48.062;7.474;2023-06-10T01:48:53;5.40;;;4.65;;
42260;SDS011;27926;48.062;7.474;2023-06-10T01:51:18;7.38;;;4.40;;
42260;SDS011;27926;48.062;7.474;2023-06-10T01:53:43;12.07;;;5.13;;
42260;SDS011;27926;48.062;7.474;2023-06-10T01:56:07;15.38;;;5.57;;
42260;SDS011;27926;48.062;7.474;2023-06-10T01:58:32;6.63;;;4.50;;
42260;SDS011;27926;48.062;7.474;2023-06-10T02:00:57;6.65;;;4.82;;
42260;SDS011;27926;48.062;7.474;2023-06-10T02:03:21;6.70;;;4.78;;
42260;SDS011;27926;48.062;7.474;2023-06-10T02:05:46;14.93;;;4.55;;
42260;SDS011;27926;48.062;7.474;2023-06-10T02:08:11;15.90;;;5.32;;
42260;SDS011;27926;48.062;7.474;2023-06-10T02:10:35;7.50;;;5.40;;
42260;SDS011;27926;48.062;7.474;2023-06-10T02:13:00;15.02;;;5.15;;
42260;SDS011;27926;48.062;7.474;2023-06-10T02:15:25;7.65;;;5.00;;
42260;SDS011;27926;48.062;7.474;2023-06-10T02:17:49;8.40;;;5.05;;
42260;SDS011;27926;48.062;7.474;2023-06-10T02:20:14;15.18;;;6.15;;
42260;SDS011;27926;48.062;7.474;2023-06-10T02:22:39;8.13;;;5.40;;
42260;SDS011;27926;48.062;7.474;2023-06-10T02:25:04;7.90;;;5.25;;
42260;SDS011;27926;48.062;7.474;2023-06-10T02:27:29;9.95;;;4.90;;
42260;SDS011;27926;48.062;7.474;2023-06-10T02:29:54;14.77;;;5.43;;
42260;SDS011;27926;48.062;7.474;2023-06-10T02:32:18;7.22;;;5.55;;
42260;SDS011;27926;48.062;7.474;2023-06-10T02:34:43;9.55;;;5.65;;
42260;SDS011;27926;48.062;7.474;2023-06-10T02:37:08;12.45;;;5.40;;
42260;SDS011;27926;48.062;7.474;2023-06-10T02:39:33;15.13;;;6.05;;
42260;SDS011;27926;48.062;7.474;2023-06-10T02:41:57;8.00;;;5.22;;
42260;SDS011;27926;48.062;7.474;2023-06-10T02:44:22;7.40;;;5.07;;
42260;SDS011;27926;48.062;7.474;2023-06-10T02:46:47;9.18;;;5.07;;
42260;SDS011;27926;48.062;7.474;2023-06-10T02:49:11;7.90;;;4.90;;
42260;SDS011;27926;48.062;7.474;2023-06-10T02:51:36;7.53;;;5.57;;
42260;SDS011;27926;48.062;7.474;2023-06-10T02:54:01;12.70;;;5.63;;
42260;SDS011;27926;48.062;7.474;2023-06-10T02:56:26;7.95;;;5.72;;
42260;SDS011;27926;48.062;7.474;2023-06-10T02:58:51;7.57;;;5.20;;
42260;SDS011;27926;48.062;7.474;2023-06-10T03:01:15;9.75;;;4.97;;
42260;SDS011;27926;48.062;7.474;2023-06-10T03:03:41;12.07;;;5.57;;
42260;SDS011;27926;48.062;7.474;2023-06-10T03:06:06;12.07;;;5.70;;
42260;SDS011;27926;48.062;7.474;2023-06-10T03:08:32;14.60;;;5.28;;
42260;SDS011;27926;48.062;7.474;2023-06-10T03:10:57;9.10;;;5.95;;
42260;SDS011;27926;48.062;7.474;2023-06-10T03:13:21;9.07;;;5.75;;
42260;SDS011;27926;48.062;7.474;2023-06-10T03:15:47;7.88;;;5.45;;
42260;SDS011;27926;48.062;7.474;2023-06-10T03:18:12;11.20;;;5.75;;
42260;SDS011;27926;48.062;7.474;2023-06-10T03:20:36;9.00;;;6.38;;
42260;SDS011;27926;48.062;7.474;2023-06-10T03:23:01;19.38;;;5.63;;
42260;SDS011;27926;48.062;7.474;2023-06-10T03:25:26;9.07;;;6.05;;
42260;SDS011;27926;48.062;7.474;2023-06-10T03:27:52;8.90;;;5.10;;
42260;SDS011;27926;48.062;7.474;2023-06-10T03:30:16;10.98;;;6.25;;
42260;SDS011;27926;48.062;7.474;2023-06-10T03:32:41;10.55;;;5.72;;
42260;SDS011;27926;48.062;7.474;2023-06-10T03:35:07;9.00;;;4.85;;
42260;SDS011;27926;48.062;7.474;2023-06-10T03:37:32;14.25;;;6.40;;
42260;SDS011;27926;48.062;7.474;2023-06-10T03:39:56;13.48;;;5.50;;
42260;SDS011;27926;48.062;7.474;2023-06-10T03:42:21;13.57;;;6.25;;
42260;SDS011;27926;48.062;7.474;2023-06-10T03:44:49;12.90;;;6.32;;
42260;SDS011;27926;48.062;7.474;2023-06-10T03:47:13;7.93;;;5.63;;
42260;SDS011;27926;48.062;7.474;2023-06-10T03:49:38;9.88;;;5.97;;
42260;SDS011;27926;48.062;7.474;2023-06-10T03:54:28;8.52;;;4.72;;
42260;SDS011;27926;48.062;7.474;2023-06-10T03:56:53;8.95;;;5.30;;
42260;SDS011;27926;48.062;7.474;2023-06-10T03:59:18;12.80;;;6.28;;
42260;SDS011;27926;48.062;7.474;2023-06-10T04:01:42;11.95;;;5.32;;
42260;SDS011;27926;48.062;7.474;2023-06-10T04:04:07;8.30;;;5.93;;
42260;SDS011;27926;48.062;7.474;2023-06-10T04:06:32;9.25;;;6.60;;
42260;SDS011;27926;48.062;7.474;2023-06-10T04:08:58;8.32;;;4.85;;
42260;SDS011;27926;48.062;7.474;2023-06-10T04:11:23;14.90;;;6.60;;
42260;SDS011;27926;48.062;7.474;2023-06-10T04:13:48;11.98;;;5.20;;
42260;SDS011;27926;48.062;7.474;2023-06-10T04:16:13;10.55;;;5.78;;
42260;SDS011;27926;48.062;7.474;2023-06-10T04:18:38;12.70;;;6.40;;
42260;SDS011;27926;48.062;7.474;2023-06-10T04:21:03;9.73;;;5.97;;
42260;SDS011;27926;48.062;7.474;2023-06-10T04:23:27;10.20;;;5.95;;
42260;SDS011;27926;48.062;7.474;2023-06-10T04:25:52;8.90;;;5.70;;
42260;SDS011;27926;48.062;7.474;2023-06-10T04:28:17;10.88;;;5.65;;
42260;SDS011;27926;48.062;7.474;2023-06-10T04:30:42;8.35;;;6.20;;
42260;SDS011;27926;48.062;7.474;2023-06-10T04:33:06;10.93;;;5.55;;
42260;SDS011;27926;48.062;7.474;2023-06-10T04:35:33;9.80;;;4.85;;
42260;SDS011;27926;48.062;7.474;2023-06-10T04:37:57;11.73;;;5.03;;
42260;SDS011;27926;48.062;7.474;2023-06-10T04:40:22;8.82;;;4.85;;
42260;SDS011;27926;48.062;7.474;2023-06-10T04:42:46;9.68;;;4.97;;
42260;SDS011;27926;48.062;7.474;2023-06-10T04:45:11;8.60;;;5.78;;
42260;SDS011;27926;48.062;7.474;2023-06-10T04:47:36;9.68;;;5.40;;
42260;SDS011;27926;48.062;7.474;2023-06-10T04:50:01;11.60;;;7.10;;
42260;SDS011;27926;48.062;7.474;2023-06-10T04:54:51;16.25;;;7.40;;
42260;SDS011;27926;48.062;7.474;2023-06-10T04:57:16;12.07;;;6.50;;
42260;SDS011;27926;48.062;7.474;2023-06-10T04:59:40;9.63;;;6.80;;
42260;SDS011;27926;48.062;7.474;2023-06-10T05:02:05;19.07;;;8.00;;
42260;SDS011;27926;48.062;7.474;2023-06-10T05:04:29;9.97;;;7.23;;
42260;SDS011;27926;48.062;7.474;2023-06-10T05:06:54;10.73;;;8.00;;
42260;SDS011;27926;48.062;7.474;2023-06-10T05:09:19;10.67;;;7.70;;
42260;SDS011;27926;48.062;7.474;2023-06-10T05:11:44;11.37;;;7.60;;
42260;SDS011;27926;48.062;7.474;2023-06-10T05:14:08;12.57;;;7.70;;
42260;SDS011;27926;48.062;7.474;2023-06-10T05:16:33;15.10;;;7.90;;
42260;SDS011;27926;48.062;7.474;2023-06-10T05:18:57;9.13;;;6.73;;
42260;SDS011;27926;48.062;7.474;2023-06-10T05:21:22;12.27;;;6.90;;
42260;SDS011;27926;48.062;7.474;2023-06-10T05:23:47;11.83;;;8.00;;
42260;SDS011;27926;48.062;7.474;2023-06-10T05:26:11;12.30;;;7.40;;
42260;SDS011;27926;48.062;7.474;2023-06-10T05:28:36;9.83;;;7.43;;
42260;SDS011;27926;48.062;7.474;2023-06-10T05:31:01;10.60;;;7.37;;
42260;SDS011;27926;48.062;7.474;2023-06-10T05:33:25;10.07;;;7.47;;
42260;SDS011;27926;48.062;7.474;2023-06-10T05:35:51;14.25;;;7.25;;
42260;SDS011;27926;48.062;7.474;2023-06-10T05:38:15;16.50;;;7.10;;
42260;SDS011;27926;48.062;7.474;2023-06-10T05:40:40;13.17;;;6.60;;
42260;SDS011;27926;48.062;7.474;2023-06-10T05:43:05;7.43;;;6.40;;
42260;SDS011;27926;48.062;7.474;2023-06-10T05:45:29;10.33;;;7.07;;
42260;SDS011;27926;48.062;7.474;2023-06-10T05:47:54;13.03;;;7.40;;
42260;SDS011;27926;48.062;7.474;2023-06-10T05:50:19;12.05;;;7.15;;
42260;SDS011;27926;48.062;7.474;2023-06-10T05:52:44;8.00;;;6.17;;
42260;SDS011;27926;48.062;7.474;2023-06-10T05:55:08;10.20;;;6.90;;
42260;SDS011;27926;48.062;7.474;2023-06-10T05:57:33;8.25;;;6.40;;
42260;SDS011;27926;48.062;7.474;2023-06-10T05:59:58;13.80;;;7.43;;
42260;SDS011;27926;48.062;7.474;2023-06-10T06:02:23;8.30;;;6.57;;
42260;SDS011;27926;48.062;7.474;2023-06-10T06:04:47;13.05;;;6.47;;
42260;SDS011;27926;48.062;7.474;2023-06-10T06:09:47;12.02;;;7.25;;
42260;SDS011;27926;48.062;7.474;2023-06-10T06:12:11;10.52;;;7.50;;
42260;SDS011;27926;48.062;7.474;2023-06-10T06:14:37;16.17;;;6.57;;
42260;SDS011;27926;48.062;7.474;2023-06-10T06:17:04;7.82;;;6.38;;
42260;SDS011;27926;48.062;7.474;2023-06-10T06:19:29;14.38;;;7.43;;
42260;SDS011;27926;48.062;7.474;2023-06-10T06:21:54;10.03;;;7.20;;
42260;SDS011;27926;48.062;7.474;2023-06-10T06:24:19;17.47;;;7.50;;
42260;SDS011;27926;48.062;7.474;2023-06-10T06:26:43;17.23;;;6.60;;
42260;SDS011;27926;48.062;7.474;2023-06-10T06:29:09;10.57;;;6.75;;
42260;SDS011;27926;48.062;7.474;2023-06-10T06:31:33;12.17;;;6.97;;
42260;SDS011;27926;48.062;7.474;2023-06-10T06:33:58;15.27;;;7.50;;
42260;SDS011;27926;48.062;7.474;2023-06-10T06:36:23;8.50;;;7.03;;
42260;SDS011;27926;48.062;7.474;2023-06-10T06:38:47;10.80;;;7.20;;
42260;SDS011;27926;48.062;7.474;2023-06-10T06:41:12;10.77;;;7.10;;
42260;SDS011;27926;48.062;7.474;2023-06-10T06:43:36;14.10;;;7.60;;
42260;SDS011;27926;48.062;7.474;2023-06-10T06:46:01;13.53;;;6.93;;
42260;SDS011;27926;48.062;7.474;2023-06-10T06:48:25;15.17;;;7.73;;
42260;SDS011;27926;48.062;7.474;2023-06-10T06:50:50;18.10;;;8.80;;
42260;SDS011;27926;48.062;7.474;2023-06-10T06:53:15;19.03;;;8.33;;
42260;SDS011;27926;48.062;7.474;2023-06-10T06:55:40;10.43;;;7.50;;
42260;SDS011;27926;48.062;7.474;2023-06-10T06:58:04;11.70;;;7.03;;
42260;SDS011;27926;48.062;7.474;2023-06-10T07:00:29;14.70;;;8.10;;
42260;SDS011;27926;48.062;7.474;2023-06-10T07:02:54;10.73;;;7.90;;
42260;SDS011;27926;48.062;7.474;2023-06-10T07:05:19;11.50;;;7.67;;
42260;SDS011;27926;48.062;7.474;2023-06-10T07:07:44;14.30;;;7.97;;
42260;SDS011;27926;48.062;7.474;2023-06-10T07:10:08;17.90;;;7.97;;
42260;SDS011;27926;48.062;7.474;2023-06-10T07:12:33;16.00;;;8.05;;
42260;SDS011;27926;48.062;7.474;2023-06-10T07:14:58;13.53;;;7.77;;
42260;SDS011;27926;48.062;7.474;2023-06-10T07:17:23;17.70;;;8.27;;
42260;SDS011;27926;48.062;7.474;2023-06-10T07:19:47;11.33;;;7.80;;
42260;SDS011;27926;48.062;7.474;2023-06-10T07:22:12;10.43;;;8.33;;
42260;SDS011;27926;48.062;7.474;2023-06-10T07:24:37;13.43;;;8.07;;
42260;SDS011;27926;48.062;7.474;2023-06-10T07:27:01;12.57;;;7.40;;
42260;SDS011;27926;48.062;7.474;2023-06-10T07:29:26;9.40;;;7.03;;
42260;SDS011;27926;48.062;7.474;2023-06-10T07:31:50;13.97;;;7.87;;
42260;SDS011;27926;48.062;7.474;2023-06-10T07:34:15;11.13;;;7.50;;
42260;SDS011;27926;48.062;7.474;2023-06-10T07:36:40;9.97;;;7.63;;
42260;SDS011;27926;48.062;7.474;2023-06-10T07:39:04;72.60;;;12.40;;
42260;SDS011;27926;48.062;7.474;2023-06-10T07:41:29;61.03;;;11.77;;
42260;SDS011;27926;48.062;7.474;2023-06-10T07:43:54;19.73;;;9.13;;
42260;SDS011;27926;48.062;7.474;2023-06-10T07:46:20;54.80;;;12.25;;
42260;SDS011;27926;48.062;7.474;2023-06-10T07:48:45;16.00;;;8.48;;
42260;SDS011;27926;48.062;7.474;2023-06-10T07:51:10;31.00;;;10.67;;
42260;SDS011;27926;48.062;7.474;2023-06-10T07:53:34;9.50;;;7.43;;
42260;SDS011;27926;48.062;7.474;2023-06-10T07:55:59;13.97;;;8.90;;
42260;SDS011;27926;48.062;7.474;2023-06-10T07:58:23;29.70;;;9.10;;
42260;SDS011;27926;48.062;7.474;2023-06-10T08:00:48;17.40;;;9.07;;
42260;SDS011;27926;48.062;7.474;2023-06-10T08:03:13;11.20;;;8.47;;
42260;SDS011;27926;48.062;7.474;2023-06-10T08:05:39;15.97;;;8.33;;
42260;SDS011;27926;48.062;7.474;2023-06-10T08:08:04;14.27;;;9.45;;
42260;SDS011;27926;48.062;7.474;2023-06-10T08:10:29;10.87;;;7.70;;
42260;SDS011;27926;48.062;7.474;2023-06-10T08:12:53;12.60;;;7.50;;
42260;SDS011;27926;48.062;7.474;2023-06-10T08:15:18;10.10;;;8.37;;
42260;SDS011;27926;48.062;7.474;2023-06-10T08:17:43;11.40;;;8.90;;
42260;SDS011;27926;48.062;7.474;2023-06-10T08:20:08;20.30;;;8.55;;
42260;SDS011;27926;48.062;7.474;2023-06-10T08:22:33;16.27;;;8.53;;
42260;SDS011;27926;48.062;7.474;2023-06-10T08:24:57;12.50;;;6.87;;
42260;SDS011;27926;48.062;7.474;2023-06-10T08:27:22;11.80;;;7.70;;
42260;SDS011;27926;48.062;7.474;2023-06-10T08:29:47;11.70;;;8.07;;
42260;SDS011;27926;48.062;7.474;2023-06-10T08:32:11;15.70;;;8.13;;
42260;SDS011;27926;48.062;7.474;2023-06-10T08:34:36;11.63;;;6.50;;
42260;SDS011;27926;48.062;7.474;2023-06-10T08:37:01;13.77;;;8.67;;
42260;SDS011;27926;48.062;7.474;2023-06-10T08:39:26;17.40;;;9.25;;
42260;SDS011;27926;48.062;7.474;2023-06-10T08:42:04;19.03;;;7.97;;
42260;SDS011;27926;48.062;7.474;2023-06-10T08:44:35;10.63;;;7.97;;
42260;SDS011;27926;48.062;7.474;2023-06-10T08:47:15;10.00;;;6.20;;
42260;SDS011;27926;48.062;7.474;2023-06-10T08:49:50;8.43;;;6.53;;
42260;SDS011;27926;48.062;7.474;2023-06-10T08:52:20;12.80;;;6.30;;
42260;SDS011;27926;48.062;7.474;2023-06-10T08:54:49;14.63;;;7.40;;
42260;SDS011;27926;48.062;7.474;2023-06-10T08:57:18;12.52;;;7.13;;
42260;SDS011;27926;48.062;7.474;2023-06-10T08:59:45;12.43;;;7.15;;
42260;SDS011;27926;48.062;7.474;2023-06-10T09:02:10;10.70;;;5.82;;
42260;SDS011;27926;48.062;7.474;2023-06-10T09:04:36;16.73;;;7.10;;
42260;SDS011;27926;48.062;7.474;2023-06-10T09:07:01;11.95;;;6.72;;
42260;SDS011;27926;48.062;7.474;2023-06-10T09:09:26;12.57;;;6.85;;
42260;SDS011;27926;48.062;7.474;2023-06-10T09:11:54;12.95;;;6.25;;
42260;SDS011;27926;48.062;7.474;2023-06-10T09:14:19;10.13;;;5.97;;
42260;SDS011;27926;48.062;7.474;2023-06-10T09:16:43;13.57;;;5.93;;
42260;SDS011;27926;48.062;7.474;2023-06-10T09:19:10;10.35;;;6.10;;
42260;SDS011;27926;48.062;7.474;2023-06-10T09:21:35;8.03;;;5.70;;
42260;SDS011;27926;48.062;7.474;2023-06-10T09:24:00;10.10;;;6.17;;
42260;SDS011;27926;48.062;7.474;2023-06-10T09:26:27;8.20;;;6.20;;
42260;SDS011;27926;48.062;7.474;2023-06-10T09:28:57;8.13;;;6.07;;
42260;SDS011;27926;48.062;7.474;2023-06-10T09:31:35;19.83;;;6.80;;
42260;SDS011;27926;48.062;7.474;2023-06-10T09:34:05;9.75;;;6.28;;
42260;SDS011;27926;48.062;7.474;2023-06-10T09:36:34;10.70;;;5.97;;
42260;SDS011;27926;48.062;7.474;2023-06-10T09:39:03;7.43;;;6.05;;
42260;SDS011;27926;48.062;7.474;2023-06-10T09:41:34;11.70;;;6.13;;
42260;SDS011;27926;48.062;7.474;2023-06-10T09:43:59;9.15;;;5.63;;
42260;SDS011;27926;48.062;7.474;2023-06-10T09:46:24;6.83;;;5.47;;
42260;SDS011;27926;48.062;7.474;2023-06-10T09:48:54;11.93;;;6.03;;
42260;SDS011;27926;48.062;7.474;2023-06-10T09:51:18;14.13;;;7.27;;
42260;SDS011;27926;48.062;7.474;2023-06-10T09:53:47;12.63;;;5.93;;
42260;SDS011;27926;48.062;7.474;2023-06-10T09:56:13;17.17;;;6.60;;
42260;SDS011;27926;48.062;7.474;2023-06-10T09:58:38;9.90;;;5.47;;
42260;SDS011;27926;48.062;7.474;2023-06-10T10:01:08;8.45;;;5.32;;
42260;SDS011;27926;48.062;7.474;2023-06-10T10:03:34;11.68;;;6.05;;
42260;SDS011;27926;48.062;7.474;2023-06-10T10:06:08;9.88;;;5.47;;
42260;SDS011;27926;48.062;7.474;2023-06-10T10:08:33;7.38;;;5.90;;
42260;SDS011;27926;48.062;7.474;2023-06-10T10:10:57;9.47;;;5.17;;
42260;SDS011;27926;48.062;7.474;2023-06-10T10:13:23;13.90;;;6.30;;
42260;SDS011;27926;48.062;7.474;2023-06-10T10:15:49;11.07;;;5.72;;
42260;SDS011;27926;48.062;7.474;2023-06-10T10:18:14;18.60;;;5.73;;
42260;SDS011;27926;48.062;7.474;2023-06-10T10:20:47;7.30;;;5.50;;
42260;SDS011;27926;48.062;7.474;2023-06-10T10:23:21;7.53;;;5.55;;
42260;SDS011;27926;48.062;7.474;2023-06-10T10:26:07;14.88;;;6.03;;
42260;SDS011;27926;48.062;7.474;2023-06-10T10:28:37;9.77;;;5.47;;
42260;SDS011;27926;48.062;7.474;2023-06-10T10:31:09;9.82;;;6.38;;
42260;SDS011;27926;48.062;7.474;2023-06-10T10:33:58;12.57;;;5.78;;
42260;SDS011;27926;48.062;7.474;2023-06-10T10:36:22;9.18;;;5.65;;
42260;SDS011;27926;48.062;7.474;2023-06-10T10:38:47;8.40;;;5.45;;
42260;SDS011;27926;48.062;7.474;2023-06-10T10:41:15;7.70;;;6.07;;
42260;SDS011;27926;48.062;7.474;2023-06-10T10:43:40;8.13;;;6.10;;
42260;SDS011;27926;48.062;7.474;2023-06-10T10:46:11;7.45;;;5.15;;
42260;SDS011;27926;48.062;7.474;2023-06-10T10:48:37;10.90;;;5.63;;
42260;SDS011;27926;48.062;7.474;2023-06-10T10:51:03;7.63;;;5.97;;
42260;SDS011;27926;48.062;7.474;2023-06-10T10:53:29;9.20;;;5.50;;
42260;SDS011;27926;48.062;7.474;2023-06-10T10:56:04;9.40;;;5.55;;
42260;SDS011;27926;48.062;7.474;2023-06-10T10:58:30;11.00;;;5.68;;
42260;SDS011;27926;48.062;7.474;2023-06-10T11:00:56;10.27;;;5.90;;
42260;SDS011;27926;48.062;7.474;2023-06-10T11:03:20;13.70;;;5.80;;
42260;SDS011;27926;48.062;7.474;2023-06-10T11:05:46;11.20;;;5.50;;
42260;SDS011;27926;48.062;7.474;2023-06-10T11:08:12;8.38;;;5.75;;
42260;SDS011;27926;48.062;7.474;2023-06-10T11:10:38;8.75;;;5.45;;
42260;SDS011;27926;48.062;7.474;2023-06-10T11:13:08;12.45;;;5.45;;
42260;SDS011;27926;48.062;7.474;2023-06-10T11:15:50;11.73;;;5.32;;
42260;SDS011;27926;48.062;7.474;2023-06-10T11:18:30;10.57;;;4.78;;
42260;SDS011;27926;48.062;7.474;2023-06-10T11:21:00;8.00;;;5.32;;
42260;SDS011;27926;48.062;7.474;2023-06-10T11:28:38;9.27;;;5.72;;
42260;SDS011;27926;48.062;7.474;2023-06-10T11:31:03;9.15;;;5.28;;
42260;SDS011;27926;48.062;7.474;2023-06-10T11:33:28;8.20;;;5.23;;
42260;SDS011;27926;48.062;7.474;2023-06-10T11:35:53;5.85;;;4.75;;
42260;SDS011;27926;48.062;7.474;2023-06-10T11:38:18;7.27;;;5.13;;
42260;SDS011;27926;48.062;7.474;2023-06-10T11:40:47;11.00;;;5.50;;
42260;SDS011;27926;48.062;7.474;2023-06-10T11:43:14;8.65;;;4.72;;
42260;SDS011;27926;48.062;7.474;2023-06-10T11:45:41;5.80;;;4.15;;
42260;SDS011;27926;48.062;7.474;2023-06-10T11:48:05;7.57;;;5.07;;
42260;SDS011;27926;48.062;7.474;2023-06-10T11:50:33;7.83;;;4.73;;
42260;SDS011;27926;48.062;7.474;2023-06-10T11:52:57;12.07;;;5.35;;
42260;SDS011;27926;48.062;7.474;2023-06-10T11:55:22;7.00;;;4.50;;
42260;SDS011;27926;48.062;7.474;2023-06-10T11:57:47;6.00;;;4.47;;
42260;SDS011;27926;48.062;7.474;2023-06-10T12:02:37;6.90;;;4.60;;
42260;SDS011;27926;48.062;7.474;2023-06-10T12:05:12;6.17;;;4.63;;
42260;SDS011;27926;48.062;7.474;2023-06-10T12:07:37;7.28;;;4.78;;
42260;SDS011;27926;48.062;7.474;2023-06-10T12:10:01;5.97;;;4.43;;
42260;SDS011;27926;48.062;7.474;2023-06-10T12:12:26;7.30;;;4.97;;
42260;SDS011;27926;48.062;7.474;2023-06-10T12:17:17;5.85;;;4.32;;
42260;SDS011;27926;48.062;7.474;2023-06-10T12:19:42;6.90;;;4.43;;
42260;SDS011;27926;48.062;7.474;2023-06-10T12:22:06;8.27;;;4.23;;
42260;SDS011;27926;48.062;7.474;2023-06-10T12:24:31;9.73;;;5.30;;
42260;SDS011;27926;48.062;7.474;2023-06-10T12:26:56;5.60;;;4.63;;
42260;SDS011;27926;48.062;7.474;2023-06-10T12:29:21;7.17;;;4.77;;
42260;SDS011;27926;48.062;7.474;2023-06-10T12:31:52;9.23;;;4.78;;
42260;SDS011;27926;48.062;7.474;2023-06-10T12:34:16;6.10;;;4.78;;
42260;SDS011;27926;48.062;7.474;2023-06-10T12:36:47;7.70;;;4.77;;
42260;SDS011;27926;48.062;7.474;2023-06-10T12:39:15;8.07;;;4.63;;
42260;SDS011;27926;48.062;7.474;2023-06-10T12:41:39;6.00;;;4.43;;
42260;SDS011;27926;48.062;7.474;2023-06-10T12:44:04;6.82;;;5.15;;
42260;SDS011;27926;48.062;7.474;2023-06-10T12:46:35;14.93;;;4.60;;
42260;SDS011;27926;48.062;7.474;2023-06-10T12:49:00;8.90;;;4.30;;
42260;SDS011;27926;48.062;7.474;2023-06-10T12:51:28;6.20;;;4.07;;
42260;SDS011;27926;48.062;7.474;2023-06-10T12:53:53;7.45;;;4.43;;
42260;SDS011;27926;48.062;7.474;2023-06-10T12:56:18;8.80;;;4.37;;
42260;SDS011;27926;48.062;7.474;2023-06-10T12:58:42;8.30;;;4.80;;
42260;SDS011;27926;48.062;7.474;2023-06-10T13:01:07;6.30;;;4.23;;
42260;SDS011;27926;48.062;7.474;2023-06-10T13:03:31;6.10;;;4.53;;
42260;SDS011;27926;48.062;7.474;2023-06-10T13:05:56;6.45;;;4.30;;
42260;SDS011;27926;48.062;7.474;2023-06-10T13:08:21;6.73;;;3.97;;
42260;SDS011;27926;48.062;7.474;2023-06-10T13:10:46;4.33;;;3.90;;
42260;SDS011;27926;48.062;7.474;2023-06-10T13:13:12;5.00;;;4.50;;
42260;SDS011;27926;48.062;7.474;2023-06-10T13:18:03;6.47;;;4.40;;
42260;SDS011;27926;48.062;7.474;2023-06-10T13:20:28;8.68;;;4.47;;
42260;SDS011;27926;48.062;7.474;2023-06-10T13:22:53;6.57;;;4.65;;
42260;SDS011;27926;48.062;7.474;2023-06-10T13:25:17;5.00;;;4.33;;
42260;SDS011;27926;48.062;7.474;2023-06-10T13:27:42;10.43;;;5.33;;
42260;SDS011;27926;48.062;7.474;2023-06-10T13:30:07;5.23;;;4.13;;
42260;SDS011;27926;48.062;7.474;2023-06-10T13:32:33;6.25;;;3.83;;
42260;SDS011;27926;48.062;7.474;2023-06-10T13:34:57;5.70;;;4.13;;
42260;SDS011;27926;48.062;7.474;2023-06-10T13:37:22;7.37;;;4.80;;
42260;SDS011;27926;48.062;7.474;2023-06-10T13:39:47;12.48;;;4.05;;
42260;SDS011;27926;48.062;7.474;2023-06-10T13:42:14;6.60;;;4.28;;
42260;SDS011;27926;48.062;7.474;2023-06-10T13:44:39;7.13;;;3.93;;
42260;SDS011;27926;48.062;7.474;2023-06-10T13:47:03;5.93;;;4.07;;
42260;SDS011;27926;48.062;7.474;2023-06-10T13:49:28;5.93;;;4.28;;
42260;SDS011;27926;48.062;7.474;2023-06-10T13:51:53;11.40;;;4.43;;
42260;SDS011;27926;48.062;7.474;2023-06-10T13:54:18;10.73;;;4.27;;
42260;SDS011;27926;48.062;7.474;2023-06-10T13:56:42;6.70;;;3.97;;
42260;SDS011;27926;48.062;7.474;2023-06-10T13:59:07;5.53;;;4.37;;
42260;SDS011;27926;48.062;7.474;2023-06-10T14:01:32;4.93;;;3.73;;
42260;SDS011;27926;48.062;7.474;2023-06-10T14:03:56;8.13;;;5.30;;
42260;SDS011;27926;48.062;7.474;2023-06-10T14:06:21;5.83;;;3.90;;
42260;SDS011;27926;48.062;7.474;2023-06-10T14:08:46;4.25;;;3.60;;
42260;SDS011;27926;48.062;7.474;2023-06-10T14:11:11;7.73;;;4.20;;
42260;SDS011;27926;48.062;7.474;2023-06-10T14:13:35;3.73;;;3.37;;
42260;SDS011;27926;48.062;7.474;2023-06-10T14:16:02;3.92;;;3.28;;
42260;SDS011;27926;48.062;7.474;2023-06-10T14:18:27;7.28;;;3.70;;
42260;SDS011;27926;48.062;7.474;2023-06-10T14:20:52;6.63;;;3.60;;
42260;SDS011;27926;48.062;7.474;2023-06-10T14:23:16;4.07;;;3.23;;
42260;SDS011;27926;48.062;7.474;2023-06-10T14:25:41;5.07;;;3.63;;
42260;SDS011;27926;48.062;7.474;2023-06-10T14:28:05;5.20;;;3.70;;
42260;SDS011;27926;48.062;7.474;2023-06-10T14:30:30;7.73;;;3.80;;
42260;SDS011;27926;48.062;7.474;2023-06-10T14:32:54;6.00;;;3.47;;
42260;SDS011;27926;48.062;7.474;2023-06-10T14:35:19;8.23;;;3.67;;
42260;SDS011;27926;48.062;7.474;2023-06-10T14:37:45;7.40;;;2.88;;
42260;SDS011;27926;48.062;7.474;2023-06-10T14:40:10;4.50;;;3.23;;
42260;SDS011;27926;48.062;7.474;2023-06-10T14:42:34;8.80;;;3.30;;
42260;SDS011;27926;48.062;7.474;2023-06-10T14:44:59;4.00;;;3.57;;
42260;SDS011;27926;48.062;7.474;2023-06-10T14:47:24;4.13;;;3.33;;
42260;SDS011;27926;48.062;7.474;2023-06-10T14:49:49;3.83;;;3.13;;
42260;SDS011;27926;48.062;7.474;2023-06-10T14:52:14;3.47;;;3.17;;
42260;SDS011;27926;48.062;7.474;2023-06-10T14:54:38;4.50;;;3.43;;
42260;SDS011;27926;48.062;7.474;2023-06-10T14:57:03;4.17;;;3.57;;